createdAt,value
2022-12-23T00:01:13.467Z,99910.84
2022-12-23T00:03:40.469Z,99912.50
2022-12-23T00:06:14.415Z,99911.81
2022-12-23T00:08:41.990Z,99919.78
2022-12-23T00:11:13.832Z,99918.13
2022-12-23T00:13:59.202Z,99914.56
2022-12-23T00:16:25.731Z,99910.97
2022-12-23T00:18:53.405Z,99908.50
2022-12-23T00:21:20.271Z,99918.81
2022-12-23T00:23:48.683Z,99916.31
2022-12-23T00:26:21.453Z,99918.81
2022-12-23T00:28:48.107Z,99906.72
2022-12-23T00:31:15.656Z,99925.94
2022-12-23T00:33:44.205Z,99928.56
2022-12-23T00:36:17.943Z,99924.03
2022-12-23T00:39:03.302Z,99925.00
2022-12-23T00:41:48.676Z,99924.16
2022-12-23T00:44:15.543Z,99927.72
2022-12-23T00:46:42.023Z,99931.97
2022-12-23T00:49:26.716Z,99934.75
2022-12-23T00:51:53.277Z,99934.06
2022-12-23T00:54:19.881Z,99933.09
2022-12-23T00:56:46.334Z,99941.88
2022-12-23T00:59:12.924Z,99943.53
2022-12-23T01:01:57.827Z,99939.28
2022-12-23T01:04:43.130Z,99940.06
2022-12-23T01:07:10.114Z,99935.69
2022-12-23T01:09:36.682Z,99947.78
2022-12-23T01:12:03.349Z,99947.09
2022-12-23T01:14:29.871Z,99946.13
2022-12-23T01:16:56.415Z,99946.13
2022-12-23T01:19:23.186Z,99967.00
2022-12-23T01:21:49.703Z,99965.47
2022-12-23T01:24:16.409Z,99962.88
2022-12-23T01:26:45.234Z,99966.28
2022-12-23T01:29:11.789Z,99973.19
2022-12-23T01:31:38.582Z,99984.16
2022-12-23T01:34:05.514Z,99979.91
2022-12-23T01:36:32.023Z,99983.22
2022-12-23T01:38:58.509Z,99974.97
2022-12-23T01:41:50.792Z,99987.88
2022-12-23T01:44:48.053Z,99991.44
2022-12-23T01:47:27.016Z,99998.72
2022-12-23T01:50:01.263Z,99991.13
2022-12-23T01:52:28.658Z,99990.31
2022-12-23T01:54:56.036Z,99997.81
2022-12-23T01:57:23.756Z,100001.16
2022-12-23T02:00:09.388Z,99990.84
2022-12-23T02:02:57.026Z,99996.06
2022-12-23T02:05:24.084Z,99990.28
2022-12-23T02:08:12.117Z,99993.97
2022-12-23T02:11:11.919Z,99991.22
2022-12-23T02:14:21.647Z,99984.75
2022-12-23T02:17:00.077Z,99970.50
2022-12-23T02:20:08.598Z,99987.09
2022-12-23T02:23:00.162Z,99994.78
2022-12-23T02:26:08.499Z,100000.59
2022-12-23T02:29:05.832Z,100000.81
2022-12-23T02:31:48.326Z,100015.38
2022-12-23T02:34:20.170Z,100028.31
2022-12-23T02:37:28.311Z,100015.00
2022-12-23T02:40:00.066Z,100029.69
2022-12-23T02:42:42.651Z,100036.44
2022-12-23T02:45:21.859Z,100025.19
2022-12-23T02:47:54.943Z,100040.84
2022-12-23T02:50:28.177Z,100035.75
2022-12-23T02:52:58.568Z,100028.59
2022-12-23T02:55:32.788Z,100035.63
2022-12-23T02:58:03.134Z,100046.06
2022-12-23T03:00:30.896Z,100050.31
2022-12-23T03:02:57.625Z,100063.34
2022-12-23T03:05:24.258Z,100070.22
2022-12-23T03:07:54.581Z,100082.31
2022-12-23T03:10:33.221Z,100091.09
2022-12-23T03:13:02.730Z,100089.28
2022-12-23T03:15:57.351Z,100098.78
2022-12-23T03:18:40.078Z,100108.66
2022-12-23T03:21:29.557Z,100106.16
2022-12-23T03:24:27.876Z,100102.97
2022-12-23T03:27:03.083Z,100095.66
2022-12-23T03:29:54.483Z,100085.78
2022-12-23T03:32:22.239Z,100086.00
2022-12-23T03:34:52.128Z,100095.75
2022-12-23T03:37:21.196Z,100086.97
2022-12-23T03:39:57.114Z,100094.22
2022-12-23T03:42:31.827Z,100092.94
2022-12-23T03:45:37.159Z,100092.13
2022-12-23T03:47:57.525Z,100091.41
2022-12-23T03:50:25.377Z,100081.94
2022-12-23T03:52:55.143Z,100091.41
2022-12-23T03:55:29.349Z,100081.84
2022-12-23T03:58:10.253Z,100088.44
2022-12-23T04:00:44.168Z,100075.28
2022-12-23T04:03:35.627Z,100081.19
2022-12-23T04:06:05.292Z,100079.16
2022-12-23T04:08:36.333Z,100079.97
2022-12-23T04:11:04.204Z,100083.41
2022-12-23T04:13:31.659Z,100074.63
2022-12-23T04:15:59.502Z,100080.69
2022-12-23T04:18:26.015Z,100076.31
2022-12-23T04:20:52.498Z,100070.13
2022-12-23T04:23:19.019Z,100065.88
2022-12-23T04:25:45.467Z,100087.41
2022-12-23T04:28:11.951Z,100087.41
2022-12-23T04:30:38.453Z,100080.97
2022-12-23T04:33:04.950Z,100100.19
2022-12-23T04:35:31.549Z,100088.22
2022-12-23T04:37:58.094Z,100075.19
2022-12-23T04:40:24.553Z,100091.00
2022-12-23T04:42:51.019Z,100089.34
2022-12-23T04:45:17.467Z,100097.00
2022-12-23T04:47:43.888Z,100101.41
2022-12-23T04:50:14.731Z,100092.19
2022-12-23T04:52:42.350Z,100089.84
2022-12-23T04:55:09.596Z,100098.25
2022-12-23T04:57:36.069Z,100092.34
2022-12-23T05:00:03.996Z,100098.34
2022-12-23T05:02:30.515Z,100092.84
2022-12-23T05:04:57.000Z,100109.28
2022-12-23T05:07:23.443Z,100101.47
2022-12-23T05:09:49.868Z,100107.22
2022-12-23T05:12:17.306Z,100104.34
2022-12-23T05:14:43.745Z,100098.16
2022-12-23T05:17:10.216Z,100100.78
2022-12-23T05:19:36.704Z,100102.31
2022-12-23T05:22:03.217Z,100102.31
2022-12-23T05:24:29.767Z,100106.28
2022-12-23T05:27:00.163Z,100103.00
2022-12-23T05:29:27.384Z,100104.06
2022-12-23T05:31:54.018Z,100096.13
2022-12-23T05:34:20.964Z,100100.50
2022-12-23T05:36:47.478Z,100099.69
2022-12-23T05:39:14.057Z,100111.09
2022-12-23T05:41:40.530Z,100119.72
2022-12-23T05:44:07.002Z,100117.94
2022-12-23T05:46:33.821Z,100131.78
2022-12-23T05:49:00.465Z,100135.25
2022-12-23T05:51:27.014Z,100144.97
2022-12-23T05:53:53.441Z,100141.41
2022-12-23T05:56:19.904Z,100143.91
2022-12-23T05:58:46.413Z,100146.63
2022-12-23T06:01:14.220Z,100144.81
2022-12-23T06:03:40.824Z,100143.91
2022-12-23T06:06:07.479Z,100149.13
2022-12-23T06:08:33.989Z,100160.25
2022-12-23T06:11:00.522Z,100160.94
2022-12-23T06:13:26.986Z,100156.56
2022-12-23T06:15:53.504Z,100153.13
2022-12-23T06:18:20.008Z,100148.59
2022-12-23T06:20:47.720Z,100149.16
2022-12-23T06:23:14.342Z,100132.81
2022-12-23T06:25:40.913Z,100136.81
2022-12-23T06:28:08.043Z,100131.38
2022-12-23T06:30:34.883Z,100131.50
2022-12-23T06:33:01.458Z,100133.81
2022-12-23T06:35:27.984Z,100130.28
2022-12-23T06:37:54.614Z,100126.97
2022-12-23T06:40:21.236Z,100119.97
2022-12-23T06:42:47.748Z,100125.31
2022-12-23T06:45:24.912Z,100130.41
2022-12-23T06:47:51.411Z,100125.78
2022-12-23T06:50:17.848Z,100130.28
2022-12-23T06:52:45.250Z,100120.66
2022-12-23T06:55:11.777Z,100112.84
2022-12-23T06:57:38.269Z,100121.75
2022-12-23T07:00:05.449Z,100112.53
2022-12-23T07:02:32.106Z,100117.88
2022-12-23T07:04:58.654Z,100129.16
2022-12-23T07:07:25.099Z,100137.19
2022-12-23T07:09:51.722Z,100143.94
2022-12-23T07:12:18.204Z,100164.22
2022-12-23T07:14:44.677Z,100178.00
2022-12-23T07:17:11.547Z,100176.56
2022-12-23T07:19:38.060Z,100186.91
2022-12-23T07:22:04.750Z,100186.50
2022-12-23T07:24:31.274Z,100182.84
2022-12-23T07:26:58.933Z,100192.53
2022-12-23T07:29:25.402Z,100189.25
2022-12-23T07:31:53.069Z,100193.38
2022-12-23T07:34:19.657Z,100185.56
2022-12-23T07:36:46.123Z,100184.59
2022-12-23T07:39:12.611Z,100179.66
2022-12-23T07:41:39.118Z,100193.66
2022-12-23T07:44:06.186Z,100191.72
2022-12-23T07:46:32.776Z,100193.13
2022-12-23T07:48:59.325Z,100181.53
2022-12-23T07:51:25.776Z,100178.00
2022-12-23T07:53:52.291Z,100187.31
2022-12-23T07:56:19.105Z,100176.09
2022-12-23T07:58:50.061Z,100189.50
2022-12-23T08:01:17.614Z,100191.28
2022-12-23T08:03:44.198Z,100181.22
2022-12-23T08:06:12.705Z,100181.09
2022-12-23T08:08:40.558Z,100177.81
2022-12-23T08:11:10.856Z,100168.28
2022-12-23T08:13:39.537Z,100163.34
2022-12-23T08:16:07.633Z,100184.19
2022-12-23T08:18:36.503Z,100168.81
2022-12-23T08:21:08.702Z,100171.16
2022-12-23T08:23:35.547Z,100178.19
2022-12-23T08:26:07.464Z,100165.84
2022-12-23T08:28:35.059Z,100157.88
2022-12-23T08:31:06.146Z,100158.59
2022-12-23T08:33:33.776Z,100158.59
2022-12-23T08:36:00.292Z,100166.16
2022-12-23T08:38:26.843Z,100169.72
2022-12-23T08:40:53.293Z,100163.53
2022-12-23T08:43:19.826Z,100162.59
2022-12-23T08:45:46.526Z,100168.75
2022-12-23T08:48:13.657Z,100162.34
2022-12-23T08:50:41.920Z,100171.09
2022-12-23T08:53:09.022Z,100153.00
2022-12-23T08:55:44.121Z,100159.88
2022-12-23T08:58:12.404Z,100169.34
2022-12-23T09:00:39.121Z,100180.59
2022-12-23T09:03:06.260Z,100167.56
2022-12-23T09:05:33.713Z,100168.50
2022-12-23T09:08:00.725Z,100166.47
2022-12-23T09:10:27.207Z,100165.50
2022-12-23T09:12:55.203Z,100172.41
2022-12-23T09:15:23.456Z,100167.88
2022-12-23T09:17:49.932Z,100164.44
2022-12-23T09:20:16.514Z,100157.69
2022-12-23T09:22:43.229Z,100149.16
2022-12-23T09:25:10.953Z,100153.88
2022-12-23T09:27:37.517Z,100147.81
2022-12-23T09:30:04.434Z,100154.00
2022-12-23T09:32:32.473Z,100148.78
2022-12-23T09:34:58.977Z,100144.53
2022-12-23T09:37:25.564Z,100135.75
2022-12-23T09:39:52.041Z,100134.94
2022-12-23T09:42:34.624Z,100136.69
2022-12-23T09:45:16.599Z,100134.94
2022-12-23T09:47:44.145Z,100114.19
2022-12-23T09:50:23.662Z,100114.88
2022-12-23T09:53:00.235Z,100106.63
2022-12-23T09:55:40.184Z,100112.53
2022-12-23T09:58:26.104Z,100108.97
2022-12-23T10:01:18.823Z,100100.19
2022-12-23T10:03:59.016Z,100106.47
2022-12-23T10:06:28.904Z,100105.91
2022-12-23T10:09:00.830Z,100096.31
2022-12-23T10:11:31.200Z,100091.22
2022-12-23T10:14:20.363Z,100076.53
2022-12-23T10:16:55.860Z,100071.63
2022-12-23T10:19:26.274Z,100062.03
2022-12-23T10:22:00.635Z,100060.00
2022-12-23T10:24:36.519Z,100051.78
2022-12-23T10:27:15.384Z,100045.22
2022-12-23T10:29:42.442Z,100037.84
2022-12-23T10:32:17.866Z,100035.06
2022-12-23T10:34:56.342Z,100030.56
2022-12-23T10:37:44.338Z,100038.41
2022-12-23T10:40:33.069Z,100042.09
2022-12-23T10:44:10.561Z,100029.84
2022-12-23T10:46:52.701Z,100033.03
2022-12-23T10:49:40.938Z,100044.03
2022-12-23T10:52:21.426Z,100035.13
2022-12-23T10:54:48.402Z,100029.63
2022-12-23T10:57:17.326Z,100027.97
2022-12-23T10:59:44.145Z,100013.16
2022-12-23T11:02:14.183Z,100005.34
2022-12-23T11:04:44.481Z,99991.34
2022-12-23T11:07:43.452Z,99986.00
2022-12-23T11:10:13.170Z,99984.63
2022-12-23T11:12:42.742Z,99979.25
2022-12-23T11:15:30.785Z,99974.75
2022-12-23T11:18:02.753Z,99973.78
2022-12-23T11:20:30.334Z,99973.38
2022-12-23T11:23:02.238Z,99972.41
2022-12-23T11:25:36.877Z,99961.84
2022-12-23T11:28:22.100Z,99942.75
2022-12-23T11:31:08.649Z,99936.69
2022-12-23T11:33:39.862Z,99934.63
2022-12-23T11:36:08.401Z,99923.50
2022-12-23T11:38:37.637Z,99912.09
2022-12-23T11:41:05.227Z,99904.28
2022-12-23T11:43:33.204Z,99893.59
2022-12-23T11:46:29.461Z,99889.88
2022-12-23T11:49:23.082Z,99879.56
2022-12-23T11:52:01.921Z,99856.19
2022-12-23T11:54:29.239Z,99853.88
2022-12-23T11:56:56.634Z,99846.16
2022-12-23T11:59:39.820Z,99851.38
2022-12-23T12:02:12.469Z,99844.41
2022-12-23T12:04:41.023Z,99836.56
2022-12-23T12:07:13.108Z,99838.22
2022-12-23T12:09:42.086Z,99836.69
2022-12-23T12:12:15.868Z,99834.94
2022-12-23T12:14:44.388Z,99823.66
2022-12-23T12:17:48.247Z,99813.38
2022-12-23T12:20:21.992Z,99824.63
2022-12-23T12:22:55.424Z,99815.28
2022-12-23T12:25:29.023Z,99810.47
2022-12-23T12:28:09.045Z,99795.50
2022-12-23T12:30:44.155Z,99787.00
2022-12-23T12:33:26.943Z,99772.31
2022-12-23T12:36:07.434Z,99758.44
2022-12-23T12:38:39.183Z,99747.88
2022-12-23T12:41:14.197Z,99748.69
2022-12-23T12:43:48.503Z,99758.03
2022-12-23T12:46:51.011Z,99742.25
2022-12-23T12:49:38.380Z,99741.84
2022-12-23T12:52:13.240Z,99723.03
2022-12-23T12:54:50.914Z,99712.22
2022-12-23T12:57:20.488Z,99693.94
2022-12-23T12:59:50.107Z,99720.28
2022-12-23T13:02:19.617Z,99724.41
2022-12-23T13:05:16.881Z,99740.88
2022-12-23T13:08:03.279Z,99729.19
2022-12-23T13:10:55.760Z,99721.81
2022-12-23T13:13:32.381Z,99670.34
2022-12-23T13:16:31.909Z,99671.03
2022-12-23T13:19:15.628Z,99636.63
2022-12-23T13:21:55.176Z,99620.97
2022-12-23T13:24:32.769Z,99676.91
2022-12-23T13:27:11.839Z,99668.25
2022-12-23T13:29:44.147Z,99650.44
2022-12-23T13:32:18.146Z,99628.91
2022-12-23T13:34:52.367Z,99620.41
2022-12-23T13:37:31.697Z,99630.16
2022-12-23T13:40:04.055Z,99608.22
2022-12-23T13:42:35.510Z,99610.16
2022-12-23T13:45:03.939Z,99592.72
2022-12-23T13:47:50.653Z,99590.94
2022-12-23T13:50:29.286Z,99585.88
2022-12-23T13:53:47.449Z,99575.56
2022-12-23T13:56:30.379Z,99576.69
2022-12-23T13:58:58.392Z,99571.34
2022-12-23T14:01:41.698Z,99563.81
2022-12-23T14:04:33.031Z,99551.88
2022-12-23T14:07:27.185Z,99564.63
2022-12-23T14:09:58.535Z,99547.75
2022-12-23T14:12:29.628Z,99547.19
2022-12-23T14:15:27.399Z,99555.13
2022-12-23T14:18:23.627Z,99555.25
2022-12-23T14:21:46.292Z,99525.91
2022-12-23T14:24:34.346Z,99540.97
2022-12-23T14:27:38.545Z,99541.38
2022-12-23T14:30:34.780Z,99524.19
2022-12-23T14:33:16.025Z,99532.69
2022-12-23T14:35:43.086Z,99535.53
2022-12-23T14:38:15.424Z,99527.47
2022-12-23T14:40:41.858Z,99523.88
2022-12-23T14:43:43.702Z,99514.25
2022-12-23T14:46:30.118Z,99517.41
2022-12-23T14:49:22.569Z,99528.94
2022-12-23T14:51:43.114Z,99520.84
2022-12-23T14:54:15.113Z,99536.72
2022-12-23T14:56:47.392Z,99542.78
2022-12-23T15:02:47.749Z,99530.13
2022-12-23T15:05:15.032Z,99542.72
2022-12-23T15:10:36.714Z,99535.81
2022-12-23T15:13:06.029Z,99540.28
2022-12-23T15:15:33.786Z,99539.81
2022-12-23T15:18:06.966Z,99544.19
2022-12-23T15:20:35.241Z,99537.19
2022-12-23T15:23:08.502Z,99544.44
2022-12-23T15:25:39.284Z,99546.84
2022-12-23T15:28:06.306Z,99546.47
2022-12-23T15:30:45.386Z,99535.38
2022-12-23T15:34:00.614Z,99534.44
2022-12-23T15:36:06.279Z,99536.56
2022-12-23T15:38:37.369Z,99542.59
2022-12-23T15:41:13.429Z,99537.88
2022-12-23T15:43:44.825Z,99541.66
2022-12-23T15:46:29.140Z,99542.03
2022-12-23T15:48:56.724Z,99551.66
2022-12-23T15:51:57.641Z,99548.88
2022-12-23T15:54:27.200Z,99556.75
2022-12-23T15:56:55.978Z,99556.13
2022-12-23T15:59:29.475Z,99554.31
2022-12-23T16:01:56.277Z,99559.53
2022-12-23T16:04:28.604Z,99564.50
2022-12-23T16:06:56.125Z,99571.19
2022-12-23T16:09:30.748Z,99578.59
2022-12-23T16:12:22.428Z,99579.41
2022-12-23T16:14:57.814Z,99575.47
2022-12-23T16:17:36.896Z,99591.69
2022-12-23T16:20:15.657Z,99594.28
2022-12-23T16:22:44.575Z,99589.88
2022-12-23T16:25:25.660Z,99590.88
2022-12-23T16:28:05.061Z,99605.75
2022-12-23T16:30:37.955Z,99599.84
2022-12-23T16:33:21.550Z,99598.88
2022-12-23T16:35:48.080Z,99609.50
2022-12-23T16:38:26.582Z,99608.69
2022-12-23T16:40:55.626Z,99611.63
2022-12-23T16:43:24.057Z,99611.47
2022-12-23T16:45:54.123Z,99637.13
2022-12-23T16:48:36.504Z,99636.44
2022-12-23T16:51:07.248Z,99649.03
2022-12-23T16:53:34.023Z,99641.78
2022-12-23T16:56:01.508Z,99646.69
2022-12-23T16:58:29.006Z,99665.16
2022-12-23T17:00:55.938Z,99666.59
2022-12-23T17:03:22.507Z,99663.63
2022-12-23T17:05:49.230Z,99683.75
2022-12-23T17:08:15.880Z,99678.00
2022-12-23T17:10:44.609Z,99686.84
2022-12-23T17:13:17.414Z,99685.19
2022-12-23T17:15:46.647Z,99695.81
2022-12-23T17:18:15.163Z,99703.50
2022-12-23T17:20:44.805Z,99697.44
2022-12-23T17:23:28.056Z,99716.59
2022-12-23T17:25:54.756Z,99709.88
2022-12-23T17:28:21.968Z,99712.63
2022-12-23T17:30:54.618Z,99728.78
2022-12-23T17:33:21.457Z,99718.31
2022-12-23T17:35:48.118Z,99714.06
2022-12-23T17:38:16.079Z,99718.50
2022-12-23T17:40:44.849Z,99715.34
2022-12-23T17:43:16.120Z,99724.97
2022-12-23T17:45:43.799Z,99723.34
2022-12-23T17:48:20.200Z,99722.69
2022-12-23T17:50:48.763Z,99722.03
2022-12-23T17:53:19.682Z,99723.66
2022-12-23T17:55:47.196Z,99735.09
2022-12-23T17:58:14.379Z,99732.47
2022-12-23T18:00:41.341Z,99730.31
2022-12-23T18:03:21.456Z,99740.91
2022-12-23T18:05:47.950Z,99741.22
2022-12-23T18:08:14.553Z,99739.56
2022-12-23T18:10:41.128Z,99746.22
2022-12-23T18:13:17.134Z,99747.19
2022-12-23T18:15:45.604Z,99753.84
2022-12-23T18:18:17.901Z,99758.69
2022-12-23T18:20:51.392Z,99764.91
2022-12-23T18:23:34.154Z,99748.53
2022-12-23T18:26:00.823Z,99755.56
2022-12-23T18:28:27.378Z,99762.59
2022-12-23T18:30:56.363Z,99759.75
2022-12-23T18:33:24.172Z,99766.63
2022-12-23T18:35:51.015Z,99767.44
2022-12-23T18:38:18.552Z,99769.06
2022-12-23T18:40:45.585Z,99782.84
2022-12-23T18:43:23.085Z,99787.22
2022-12-23T18:45:53.307Z,99778.41
2022-12-23T18:48:21.437Z,99789.72
2022-12-23T18:50:48.213Z,99787.91
2022-12-23T18:53:23.711Z,99798.22
2022-12-23T18:55:52.299Z,99800.00
2022-12-23T18:58:19.912Z,99803.59
2022-12-23T19:00:48.111Z,99802.47
2022-12-23T19:03:29.305Z,99809.78
2022-12-23T19:05:57.450Z,99821.22
2022-12-23T19:08:27.501Z,99818.47
2022-12-23T19:10:55.114Z,99827.56
2022-12-23T19:13:21.737Z,99818.06
2022-12-23T19:15:48.398Z,99811.88
2022-12-23T19:18:17.626Z,99810.91
2022-12-23T19:20:45.941Z,99814.50
2022-12-23T19:23:13.243Z,99796.88
2022-12-23T19:25:49.224Z,99791.78
2022-12-23T19:28:20.936Z,99810.09
2022-12-23T19:30:47.534Z,99823.47
2022-12-23T19:33:14.084Z,99817.53
2022-12-23T19:35:53.851Z,99813.28
2022-12-23T19:38:20.369Z,99831.88
2022-12-23T19:40:56.541Z,99826.66
2022-12-23T19:43:23.154Z,99834.50
2022-12-23T19:46:00.569Z,99846.50
2022-12-23T19:48:27.998Z,99855.19
2022-12-23T19:51:06.396Z,99849.13
2022-12-23T19:53:33.194Z,99865.63
2022-12-23T19:56:12.607Z,99866.59
2022-12-23T19:58:40.778Z,99871.00
2022-12-23T20:01:15.419Z,99889.16
2022-12-23T20:03:43.417Z,99880.34
2022-12-23T20:06:22.324Z,99892.72
2022-12-23T20:08:49.066Z,99895.19
2022-12-23T20:11:25.681Z,99885.84
2022-12-23T20:13:53.808Z,99899.09
2022-12-23T20:16:20.612Z,99891.38
2022-12-23T20:18:47.414Z,99892.72
2022-12-23T20:21:13.969Z,99885.72
2022-12-23T20:23:40.516Z,99910.06
2022-12-23T20:26:07.303Z,99904.00
2022-12-23T20:28:34.113Z,99915.00
2022-12-23T20:31:07.683Z,99911.72
2022-12-23T20:33:35.813Z,99921.88
2022-12-23T20:36:03.071Z,99905.91
2022-12-23T20:38:29.550Z,99933.00
2022-12-23T20:40:56.064Z,99944.97
2022-12-23T20:43:22.587Z,99941.25
2022-12-23T20:45:50.155Z,99958.91
2022-12-23T20:48:18.151Z,99964.38
2022-12-23T20:50:44.676Z,99981.72
2022-12-23T20:53:11.153Z,99973.88
2022-12-23T20:55:37.713Z,99974.16
2022-12-23T20:58:24.133Z,99989.84
2022-12-23T21:00:50.631Z,99984.75
2022-12-23T21:03:17.193Z,99990.81
2022-12-23T21:05:43.789Z,100009.41
2022-12-23T21:08:10.327Z,100005.28
2022-12-23T21:10:36.922Z,100010.78
2022-12-23T21:13:03.892Z,100009.41
2022-12-23T21:15:33.836Z,100007.66
2022-12-23T21:18:00.410Z,100037.63
2022-12-23T21:20:27.564Z,100016.03
2022-12-23T21:22:54.059Z,100016.03
2022-12-23T21:25:20.634Z,100032.25
2022-12-23T21:27:47.171Z,100020.03
2022-12-23T21:30:13.967Z,100032.81
2022-12-23T21:32:40.476Z,100050.72
2022-12-23T21:35:07.415Z,100045.34
2022-12-23T21:37:33.887Z,100054.28
2022-12-23T21:40:00.359Z,100056.63
2022-12-23T21:42:26.896Z,100042.19
2022-12-23T21:44:53.408Z,100061.41
2022-12-23T21:47:19.941Z,100065.00
2022-12-23T21:49:46.439Z,100073.13
2022-12-23T21:52:12.967Z,100078.34
2022-12-23T21:54:39.473Z,100070.50
2022-12-23T21:57:05.987Z,100079.03
2022-12-23T21:59:35.215Z,100078.59
2022-12-23T22:02:02.196Z,100089.22
2022-12-23T22:04:29.329Z,100084.00
2022-12-23T22:06:55.871Z,100076.00
2022-12-23T22:09:22.449Z,100075.19
2022-12-23T22:11:49.056Z,100091.53
2022-12-23T22:14:18.022Z,100095.94
2022-12-23T22:16:44.614Z,100101.16
2022-12-23T22:19:11.777Z,100113.13
2022-12-23T22:21:39.785Z,100116.59
2022-12-23T22:24:06.986Z,100119.88
2022-12-23T22:26:34.718Z,100127.59
2022-12-23T22:29:05.581Z,100124.16
2022-12-23T22:31:38.110Z,100131.19
2022-12-23T22:34:05.708Z,100132.94
2022-12-23T22:36:32.845Z,100145.31
2022-12-23T22:39:01.369Z,100158.41
2022-12-23T22:41:30.132Z,100150.56
2022-12-23T22:43:57.954Z,100155.47
2022-12-23T22:46:25.438Z,100155.47
2022-12-23T22:48:52.876Z,100152.84
2022-12-23T22:51:23.495Z,100163.31
2022-12-23T22:53:50.050Z,100155.63
2022-12-23T22:56:18.388Z,100167.03
2022-12-23T22:58:44.922Z,100177.22
2022-12-23T23:01:22.459Z,100182.72
2022-12-23T23:03:54.206Z,100188.06
2022-12-23T23:06:20.690Z,100190.00
2022-12-23T23:08:47.223Z,100203.88
2022-12-23T23:11:13.666Z,100194.25
2022-12-23T23:13:40.116Z,100195.91
2022-12-23T23:16:06.893Z,100203.06
2022-12-23T23:18:33.588Z,100189.03
2022-12-23T23:21:00.127Z,100184.09
2022-12-23T23:23:26.623Z,100184.47
2022-12-23T23:25:53.065Z,100194.22
2022-12-23T23:28:19.597Z,100207.53
2022-12-23T23:30:46.120Z,100192.66
2022-12-23T23:33:12.945Z,100207.91
2022-12-23T23:35:39.465Z,100201.03
2022-12-23T23:38:06.002Z,100205.25
2022-12-23T23:40:32.677Z,100202.53
2022-12-23T23:42:59.404Z,100212.28
2022-12-23T23:45:27.387Z,100207.19
2022-12-23T23:47:55.423Z,100203.31
2022-12-23T23:50:22.660Z,100218.97
2022-12-23T23:52:49.199Z,100213.47
2022-12-23T23:55:15.767Z,100227.47
2022-12-23T23:57:42.280Z,100223.19
